createdAt,value
2022-12-22T00:00:02.805Z,31.90
2022-12-22T00:02:58.598Z,26.55
2022-12-22T00:05:45.204Z,26.20
2022-12-22T00:08:31.103Z,23.70
2022-12-22T00:11:20.131Z,25.90
2022-12-22T00:14:06.492Z,28.35
2022-12-22T00:16:55.224Z,39.25
2022-12-22T00:19:41.927Z,40.10
2022-12-22T00:22:33.226Z,38.17
2022-12-22T00:25:18.983Z,36.85
2022-12-22T00:28:05.093Z,35.25
2022-12-22T00:30:51.095Z,32.90
2022-12-22T00:33:39.373Z,34.58
2022-12-22T00:36:29.203Z,35.95
2022-12-22T00:39:15.852Z,31.58
2022-12-22T00:42:02.247Z,30.80
2022-12-22T00:44:48.369Z,32.42
2022-12-22T00:47:44.257Z,32.65
2022-12-22T00:50:31.009Z,32.00
2022-12-22T00:53:18.399Z,30.08
2022-12-22T00:56:04.594Z,27.60
2022-12-22T00:58:51.047Z,27.10
2022-12-22T01:01:37.276Z,25.80
2022-12-22T01:04:23.311Z,24.42
2022-12-22T01:07:09.479Z,21.87
2022-12-22T01:09:55.454Z,20.55
2022-12-22T01:12:45.845Z,18.45
2022-12-22T01:15:37.746Z,18.65
2022-12-22T01:18:25.501Z,19.00
2022-12-22T01:21:12.378Z,17.37
2022-12-22T01:23:59.622Z,19.55
2022-12-22T01:26:45.880Z,24.63
2022-12-22T01:29:32.027Z,25.17
2022-12-22T01:32:17.957Z,20.85
2022-12-22T01:35:04.151Z,19.87
2022-12-22T01:37:50.028Z,19.35
2022-12-22T01:40:42.414Z,29.67
2022-12-22T01:43:46.441Z,27.05
2022-12-22T01:46:52.809Z,28.00
2022-12-22T01:49:49.270Z,30.20
2022-12-22T01:52:38.329Z,30.95
2022-12-22T01:55:32.269Z,29.30
2022-12-22T01:58:18.546Z,29.75
2022-12-22T02:01:05.899Z,27.92
2022-12-22T02:03:52.519Z,24.98
2022-12-22T02:07:00.232Z,24.90
2022-12-22T02:10:03.112Z,25.20
2022-12-22T02:13:13.282Z,27.15
2022-12-22T02:16:15.954Z,27.10
2022-12-22T02:19:38.381Z,24.98
2022-12-22T02:22:53.308Z,32.20
2022-12-22T02:25:50.517Z,34.65
2022-12-22T02:28:36.842Z,33.88
2022-12-22T02:31:25.070Z,31.52
2022-12-22T02:34:10.895Z,30.20
2022-12-22T02:37:09.486Z,29.15
2022-12-22T02:40:04.467Z,27.70
2022-12-22T02:42:53.697Z,26.30
2022-12-22T02:45:49.103Z,28.65
2022-12-22T02:48:42.293Z,26.05
2022-12-22T02:51:36.095Z,25.15
2022-12-22T02:54:24.709Z,26.55
2022-12-22T02:57:10.528Z,21.05
2022-12-22T02:59:56.694Z,22.10
2022-12-22T03:02:42.972Z,19.70
2022-12-22T03:05:29.197Z,19.83
2022-12-22T03:08:15.010Z,23.15
2022-12-22T03:11:01.173Z,26.95
2022-12-22T03:13:46.973Z,27.77
2022-12-22T03:16:33.254Z,28.45
2022-12-22T03:19:19.220Z,28.38
2022-12-22T03:22:05.259Z,26.02
2022-12-22T03:24:51.375Z,24.55
2022-12-22T03:27:19.071Z,23.67
2022-12-22T03:29:46.414Z,27.35
2022-12-22T03:32:13.832Z,30.23
2022-12-22T03:34:41.903Z,27.23
2022-12-22T03:37:09.243Z,29.77
2022-12-22T03:39:36.520Z,31.27
2022-12-22T03:42:22.566Z,31.70
2022-12-22T03:45:08.651Z,28.45
2022-12-22T03:47:36.238Z,23.38
2022-12-22T03:50:03.664Z,23.73
2022-12-22T03:52:31.172Z,24.30
2022-12-22T03:54:58.695Z,22.60
2022-12-22T03:57:25.974Z,25.50
2022-12-22T03:59:53.187Z,23.08
2022-12-22T04:02:20.803Z,22.02
2022-12-22T04:04:48.645Z,22.35
2022-12-22T04:07:16.059Z,21.08
2022-12-22T04:10:03.316Z,21.33
2022-12-22T04:12:49.697Z,21.80
2022-12-22T04:15:17.120Z,23.10
2022-12-22T04:17:44.811Z,28.58
2022-12-22T04:20:12.386Z,41.95
2022-12-22T04:22:39.586Z,54.63
2022-12-22T04:25:07.816Z,51.30
2022-12-22T04:27:35.409Z,42.53
2022-12-22T04:30:03.442Z,33.80
2022-12-22T04:32:31.424Z,27.67
2022-12-22T04:34:58.777Z,24.15
2022-12-22T04:37:26.827Z,19.17
2022-12-22T04:39:54.639Z,18.17
2022-12-22T04:42:21.972Z,19.95
2022-12-22T04:44:50.286Z,20.70
2022-12-22T04:47:18.191Z,18.87
2022-12-22T04:49:45.782Z,22.17
2022-12-22T04:52:13.447Z,22.62
2022-12-22T04:54:41.469Z,22.50
2022-12-22T04:57:09.190Z,19.75
2022-12-22T04:59:36.656Z,22.50
2022-12-22T05:02:04.945Z,26.67
2022-12-22T05:04:32.703Z,27.42
2022-12-22T05:07:00.273Z,31.62
2022-12-22T05:09:28.837Z,33.38
2022-12-22T05:11:56.126Z,24.75
2022-12-22T05:14:24.161Z,24.15
2022-12-22T05:16:52.192Z,46.53
2022-12-22T05:19:20.555Z,50.12
2022-12-22T05:21:48.060Z,47.55
2022-12-22T05:24:15.897Z,53.15
2022-12-22T05:26:43.409Z,50.15
2022-12-22T05:29:10.791Z,47.08
2022-12-22T05:31:43.245Z,42.25
2022-12-22T05:34:14.258Z,42.70
2022-12-22T05:36:41.908Z,40.75
2022-12-22T05:39:09.671Z,42.15
2022-12-22T05:41:37.171Z,38.90
2022-12-22T05:44:05.194Z,38.03
2022-12-22T05:46:32.595Z,33.22
2022-12-22T05:48:59.892Z,38.65
2022-12-22T05:51:27.753Z,51.17
2022-12-22T05:53:55.620Z,65.53
2022-12-22T05:56:23.816Z,45.40
2022-12-22T05:58:51.817Z,42.10
2022-12-22T06:01:19.177Z,39.55
2022-12-22T06:03:47.505Z,41.08
2022-12-22T06:06:14.768Z,46.03
2022-12-22T06:08:42.115Z,41.55
2022-12-22T06:11:10.312Z,35.97
2022-12-22T06:13:37.737Z,34.63
2022-12-22T06:16:05.416Z,30.10
2022-12-22T06:18:33.086Z,31.37
2022-12-22T06:21:00.375Z,29.63
2022-12-22T06:23:28.700Z,44.30
2022-12-22T06:25:59.623Z,55.38
2022-12-22T06:28:27.929Z,53.58
2022-12-22T06:30:56.216Z,47.22
2022-12-22T06:33:25.587Z,57.58
2022-12-22T06:35:58.711Z,55.72
2022-12-22T06:38:28.912Z,63.10
2022-12-22T06:40:56.634Z,82.43
2022-12-22T06:43:25.228Z,71.45
2022-12-22T06:45:53.833Z,84.05
2022-12-22T06:48:21.760Z,87.45
2022-12-22T06:50:49.206Z,89.97
2022-12-22T06:53:16.940Z,84.97
2022-12-22T06:55:44.482Z,96.12
2022-12-22T06:58:12.641Z,98.50
2022-12-22T07:00:40.303Z,85.50
2022-12-22T07:03:07.780Z,78.00
2022-12-22T07:05:35.275Z,73.50
2022-12-22T07:08:08.386Z,75.97
2022-12-22T07:10:55.581Z,64.62
2022-12-22T07:13:24.329Z,37.65
2022-12-22T07:16:00.221Z,28.90
2022-12-22T07:18:34.046Z,29.77
2022-12-22T07:21:03.754Z,25.83
2022-12-22T07:23:32.336Z,23.52
2022-12-22T07:26:00.151Z,19.80
2022-12-22T07:28:28.045Z,29.00
2022-12-22T07:30:56.303Z,36.70
2022-12-22T07:33:23.821Z,35.20
2022-12-22T07:36:01.849Z,34.93
2022-12-22T07:38:29.889Z,34.10
2022-12-22T07:41:04.635Z,33.60
2022-12-22T07:43:32.996Z,35.60
2022-12-22T07:46:00.571Z,36.03
2022-12-22T07:48:47.869Z,39.67
2022-12-22T07:51:16.311Z,40.87
2022-12-22T07:53:43.630Z,37.97
2022-12-22T07:56:10.904Z,28.53
2022-12-22T07:58:38.632Z,22.60
2022-12-22T08:01:05.931Z,31.83
2022-12-22T08:03:33.817Z,29.90
2022-12-22T08:06:05.306Z,28.75
2022-12-22T08:08:34.053Z,29.17
2022-12-22T08:11:03.337Z,30.17
2022-12-22T08:13:32.242Z,27.65
2022-12-22T08:16:05.539Z,29.80
2022-12-22T08:18:35.031Z,29.20
2022-12-22T08:21:03.717Z,26.05
2022-12-22T08:23:32.295Z,30.00
2022-12-22T08:26:09.279Z,25.98
2022-12-22T08:28:42.000Z,69.33
2022-12-22T08:31:10.830Z,47.90
2022-12-22T08:33:38.194Z,29.20
2022-12-22T08:36:08.499Z,21.60
2022-12-22T08:38:38.877Z,18.77
2022-12-22T08:41:07.913Z,17.37
2022-12-22T08:46:02.951Z,15.60
2022-12-22T08:48:30.378Z,31.97
2022-12-22T08:50:58.272Z,20.20
2022-12-22T08:54:02.394Z,20.03
2022-12-22T08:56:13.388Z,21.17
2022-12-22T08:58:40.966Z,19.33
2022-12-22T09:01:08.531Z,15.93
2022-12-22T09:03:36.243Z,20.20
2022-12-22T09:06:03.942Z,18.07
2022-12-22T09:08:34.617Z,21.53
2022-12-22T09:11:05.765Z,19.50
2022-12-22T09:13:33.282Z,19.13
2022-12-22T09:16:04.538Z,18.67
2022-12-22T09:18:32.365Z,20.20
2022-12-22T09:21:00.591Z,18.43
2022-12-22T09:23:30.249Z,22.20
2022-12-22T09:25:58.015Z,27.60
2022-12-22T09:28:25.435Z,27.40
2022-12-22T09:30:53.766Z,25.20
2022-12-22T09:33:21.658Z,38.40
2022-12-22T09:35:49.096Z,22.63
2022-12-22T09:38:16.956Z,35.67
2022-12-22T09:40:44.685Z,27.20
2022-12-22T09:43:19.356Z,18.37
2022-12-22T09:45:48.273Z,41.80
2022-12-22T09:48:16.012Z,19.13
2022-12-22T09:50:59.484Z,18.73
2022-12-22T09:53:27.293Z,19.45
2022-12-22T09:55:55.355Z,14.00
2022-12-22T09:58:34.792Z,10.93
2022-12-22T10:01:05.963Z,14.57
2022-12-22T10:03:43.554Z,26.23
2022-12-22T10:06:18.038Z,20.17
2022-12-22T10:08:46.251Z,18.43
2022-12-22T10:11:19.112Z,15.07
2022-12-22T10:13:47.021Z,24.23
2022-12-22T10:16:23.755Z,14.33
2022-12-22T10:19:02.107Z,22.83
2022-12-22T10:21:29.567Z,19.60
2022-12-22T10:23:57.280Z,23.67
2022-12-22T10:26:32.555Z,16.00
2022-12-22T10:29:10.669Z,14.40
2022-12-22T10:31:57.574Z,16.30
2022-12-22T10:34:25.689Z,13.53
2022-12-22T10:36:57.770Z,16.27
2022-12-22T10:39:28.405Z,13.60
2022-12-22T10:42:09.588Z,11.83
2022-12-22T10:44:39.332Z,14.93
2022-12-22T10:47:24.447Z,8.83
2022-12-22T10:52:31.029Z,8.87
2022-12-22T10:55:18.633Z,7.67
2022-12-22T10:57:46.192Z,7.33
2022-12-22T11:00:29.964Z,7.00
2022-12-22T11:03:02.325Z,5.50
2022-12-22T11:05:32.628Z,4.27
2022-12-22T11:08:20.233Z,5.07
2022-12-22T11:11:26.648Z,5.33
2022-12-22T11:14:04.117Z,5.93
2022-12-22T11:16:36.831Z,5.77
2022-12-22T11:19:33.386Z,5.77
2022-12-22T11:22:24.183Z,6.17
2022-12-22T11:25:10.318Z,4.70
2022-12-22T11:27:47.993Z,5.03
2022-12-22T11:30:21.764Z,4.87
2022-12-22T11:32:58.395Z,5.13
2022-12-22T11:35:49.024Z,6.17
2022-12-22T11:38:46.991Z,4.47
2022-12-22T11:41:29.301Z,3.73
2022-12-22T11:44:30.728Z,5.27
2022-12-22T11:47:17.234Z,4.83
2022-12-22T11:51:00.261Z,4.27
2022-12-22T11:53:20.852Z,4.87
2022-12-22T11:56:25.462Z,4.50
2022-12-22T11:59:01.230Z,4.23
2022-12-22T12:01:40.686Z,4.43
2022-12-22T12:04:27.019Z,4.73
2022-12-22T12:07:29.403Z,4.63
2022-12-22T12:10:31.976Z,6.03
2022-12-22T12:13:05.346Z,6.27
2022-12-22T12:15:45.733Z,8.37
2022-12-22T12:18:28.154Z,8.27
2022-12-22T12:21:07.348Z,8.32
2022-12-22T12:24:12.149Z,7.03
2022-12-22T12:27:01.064Z,8.88
2022-12-22T12:29:35.757Z,8.30
2022-12-22T12:32:14.049Z,11.00
2022-12-22T12:34:47.163Z,10.70
2022-12-22T12:37:26.325Z,8.60
2022-12-22T12:40:20.965Z,10.05
2022-12-22T12:42:49.467Z,9.60
2022-12-22T12:45:35.165Z,8.18
2022-12-22T12:48:21.339Z,9.43
2022-12-22T12:50:58.416Z,8.95
2022-12-22T12:53:28.769Z,9.73
2022-12-22T12:55:58.500Z,11.88
2022-12-22T12:58:38.124Z,11.27
2022-12-22T13:01:33.166Z,9.50
2022-12-22T13:04:04.295Z,9.68
2022-12-22T13:06:52.212Z,8.43
2022-12-22T13:12:39.556Z,10.25
2022-12-22T13:15:27.241Z,9.27
2022-12-22T13:17:54.807Z,9.70
2022-12-22T13:20:30.046Z,8.20
2022-12-22T13:23:00.574Z,16.92
2022-12-22T13:25:47.808Z,21.70
2022-12-22T13:28:17.215Z,26.08
2022-12-22T13:30:51.231Z,49.78
2022-12-22T13:33:21.148Z,76.70
2022-12-22T13:35:56.584Z,74.67
2022-12-22T13:38:37.842Z,64.37
2022-12-22T13:41:21.368Z,52.27
2022-12-22T13:43:57.496Z,69.73
2022-12-22T13:46:27.533Z,57.03
2022-12-22T13:48:57.105Z,56.92
2022-12-22T13:51:29.207Z,60.37
2022-12-22T13:54:11.206Z,58.33
2022-12-22T13:56:45.721Z,59.90
2022-12-22T13:59:32.171Z,93.43
2022-12-22T14:02:01.544Z,107.07
2022-12-22T14:04:30.397Z,333.43
2022-12-22T14:07:09.663Z,167.00
2022-12-22T14:09:38.126Z,106.63
2022-12-22T14:12:20.160Z,136.77
2022-12-22T14:14:52.391Z,129.13
2022-12-22T14:17:30.527Z,138.67
2022-12-22T14:20:00.344Z,112.37
2022-12-22T14:22:34.171Z,121.57
2022-12-22T14:25:15.737Z,122.27
2022-12-22T14:27:48.954Z,125.83
2022-12-22T14:30:19.723Z,114.10
2022-12-22T14:32:54.660Z,102.63
2022-12-22T14:35:23.193Z,101.67
2022-12-22T14:38:07.721Z,105.97
2022-12-22T14:40:38.632Z,103.83
2022-12-22T14:43:20.545Z,93.80
2022-12-22T14:45:50.764Z,67.93
2022-12-22T14:48:45.243Z,75.13
2022-12-22T14:51:18.837Z,68.70
2022-12-22T14:53:55.919Z,73.80
2022-12-22T14:56:24.765Z,81.30
2022-12-22T14:58:52.298Z,82.70
2022-12-22T15:01:29.546Z,80.93
2022-12-22T15:04:08.330Z,72.30
2022-12-22T15:06:40.290Z,69.18
2022-12-22T15:09:47.234Z,62.07
2022-12-22T15:12:14.856Z,51.13
2022-12-22T15:14:42.702Z,57.77
2022-12-22T15:17:28.164Z,48.87
2022-12-22T15:19:58.965Z,41.00
2022-12-22T15:22:26.419Z,44.57
2022-12-22T15:24:53.789Z,34.23
2022-12-22T15:27:21.576Z,39.27
2022-12-22T15:29:48.966Z,36.57
2022-12-22T15:32:16.216Z,36.30
2022-12-22T15:34:44.048Z,37.43
2022-12-22T15:37:12.950Z,33.03
2022-12-22T15:39:40.672Z,34.63
2022-12-22T15:42:08.510Z,39.60
2022-12-22T15:44:38.948Z,50.90
2022-12-22T15:47:10.599Z,49.33
2022-12-22T15:49:38.813Z,44.30
2022-12-22T15:52:07.106Z,48.40
2022-12-22T15:54:36.513Z,40.10
2022-12-22T15:57:04.340Z,43.17
2022-12-22T15:59:31.676Z,42.43
2022-12-22T16:02:01.771Z,40.53
2022-12-22T16:04:30.225Z,40.50
2022-12-22T16:06:59.648Z,42.63
2022-12-22T16:11:58.022Z,44.67
2022-12-22T16:14:25.390Z,48.95
2022-12-22T16:16:52.713Z,42.03
2022-12-22T16:19:20.460Z,33.13
2022-12-22T16:21:51.625Z,28.10
2022-12-22T16:24:32.009Z,28.87
2022-12-22T16:27:00.649Z,26.77
2022-12-22T16:29:28.298Z,34.90
2022-12-22T16:32:17.649Z,38.50
2022-12-22T16:34:45.815Z,44.53
2022-12-22T16:37:13.224Z,46.27
2022-12-22T16:39:40.967Z,38.07
2022-12-22T16:45:06.217Z,30.23
2022-12-22T16:47:36.605Z,26.13
2022-12-22T16:50:06.731Z,23.00
2022-12-22T16:52:38.993Z,22.57
2022-12-22T16:55:17.541Z,28.00
2022-12-22T16:57:45.451Z,28.65
2022-12-22T17:00:18.900Z,26.10
2022-12-22T17:02:51.989Z,33.40
2022-12-22T17:05:25.555Z,32.93
2022-12-22T17:07:55.375Z,31.03
2022-12-22T17:12:55.431Z,29.87
2022-12-22T17:15:24.220Z,33.83
2022-12-22T17:17:52.513Z,36.92
2022-12-22T17:20:22.943Z,26.33
2022-12-22T17:23:02.453Z,40.80
2022-12-22T17:25:31.290Z,37.65
2022-12-22T17:28:01.812Z,37.58
2022-12-22T17:30:29.219Z,38.23
2022-12-22T17:32:56.647Z,41.90
2022-12-22T17:35:26.263Z,53.97
2022-12-22T17:37:54.904Z,107.15
2022-12-22T17:40:26.786Z,92.50
2022-12-22T17:42:54.828Z,84.77
2022-12-22T17:45:22.470Z,58.63
2022-12-22T17:47:50.093Z,40.17
2022-12-22T17:50:20.360Z,38.80
2022-12-22T17:52:48.177Z,33.67
2022-12-22T17:56:05.891Z,30.87
2022-12-22T17:58:17.161Z,27.53
2022-12-22T18:03:14.249Z,16.87
2022-12-22T18:08:18.268Z,14.67
2022-12-22T18:10:47.654Z,16.07
2022-12-22T18:13:22.970Z,16.67
2022-12-22T18:15:50.365Z,18.00
2022-12-22T18:18:18.473Z,18.73
2022-12-22T18:21:06.175Z,22.90
2022-12-22T18:26:08.553Z,29.12
2022-12-22T18:28:37.070Z,31.00
2022-12-22T18:31:04.522Z,36.90
2022-12-22T18:33:31.931Z,60.33
2022-12-22T18:36:00.136Z,45.17
2022-12-22T18:38:33.290Z,39.27
2022-12-22T18:41:01.219Z,41.63
2022-12-22T18:43:28.560Z,44.50
2022-12-22T18:45:55.815Z,36.83
2022-12-22T18:48:23.607Z,35.97
2022-12-22T18:50:51.339Z,34.13
2022-12-22T18:53:24.634Z,49.27
2022-12-22T18:55:52.534Z,65.30
2022-12-22T18:58:19.964Z,60.13
2022-12-22T19:00:48.050Z,63.40
2022-12-22T19:03:21.721Z,66.15
2022-12-22T19:05:49.628Z,58.10
2022-12-22T19:08:26.057Z,57.30
2022-12-22T19:10:56.321Z,54.03
2022-12-22T19:13:39.028Z,45.17
2022-12-22T19:16:07.513Z,36.43
2022-12-22T19:18:35.255Z,29.75
2022-12-22T19:21:02.888Z,27.00
2022-12-22T19:23:30.266Z,21.83
2022-12-22T19:26:08.506Z,20.30
2022-12-22T19:28:42.810Z,19.20
2022-12-22T19:31:21.057Z,25.00
2022-12-22T19:33:49.297Z,22.37
2022-12-22T19:36:21.838Z,25.45
2022-12-22T19:38:50.971Z,26.90
2022-12-22T19:41:47.348Z,46.40
2022-12-22T19:44:21.711Z,38.70
2022-12-22T19:46:50.376Z,44.87
2022-12-22T19:49:23.143Z,43.43
2022-12-22T19:51:51.375Z,36.17
2022-12-22T19:54:22.148Z,36.10
2022-12-22T19:56:53.564Z,27.33
2022-12-22T19:59:37.293Z,25.63
2022-12-22T20:02:25.092Z,29.40
2022-12-22T20:04:53.840Z,28.77
2022-12-22T20:07:24.904Z,27.00
2022-12-22T20:09:53.090Z,21.27
2022-12-22T20:12:20.327Z,25.73
2022-12-22T20:14:47.680Z,33.37
2022-12-22T20:17:15.330Z,34.03
2022-12-22T20:19:42.650Z,37.17
2022-12-22T20:22:15.434Z,32.87
2022-12-22T20:24:46.496Z,32.33
2022-12-22T20:27:34.807Z,23.92
2022-12-22T20:30:02.543Z,20.10
2022-12-22T20:32:30.502Z,20.10
2022-12-22T20:34:57.967Z,19.47
2022-12-22T20:37:28.637Z,19.40
2022-12-22T20:39:56.036Z,17.83
2022-12-22T20:42:24.630Z,18.37
2022-12-22T20:45:02.191Z,27.10
2022-12-22T20:47:31.179Z,29.00
2022-12-22T20:49:59.658Z,31.27
2022-12-22T20:52:27.109Z,27.73
2022-12-22T20:54:54.487Z,31.87
2022-12-22T20:57:23.548Z,31.57
2022-12-22T20:59:56.068Z,29.98
2022-12-22T21:02:29.525Z,33.07
2022-12-22T21:04:57.278Z,34.92
2022-12-22T21:07:25.271Z,32.55
2022-12-22T21:09:52.901Z,34.83
2022-12-22T21:12:21.271Z,51.97
2022-12-22T21:14:49.696Z,39.28
2022-12-22T21:17:17.545Z,33.90
2022-12-22T21:19:45.553Z,33.43
2022-12-22T21:22:13.214Z,31.90
2022-12-22T21:24:41.914Z,33.07
2022-12-22T21:27:17.454Z,35.97
2022-12-22T21:29:45.312Z,34.27
2022-12-22T21:32:15.593Z,33.50
2022-12-22T21:34:42.976Z,38.93
2022-12-22T21:37:18.461Z,37.23
2022-12-22T21:39:46.290Z,41.05
2022-12-22T21:42:20.015Z,41.05
2022-12-22T21:44:47.583Z,43.93
2022-12-22T21:47:18.563Z,35.93
2022-12-22T21:49:45.881Z,35.22
2022-12-22T21:52:13.407Z,31.02
2022-12-22T21:54:41.131Z,34.37
2022-12-22T21:57:15.119Z,31.30
2022-12-22T21:59:42.874Z,29.97
2022-12-22T22:02:16.474Z,42.58
2022-12-22T22:04:50.146Z,31.37
2022-12-22T22:07:21.756Z,29.47
2022-12-22T22:09:49.504Z,28.77
2022-12-22T22:12:32.969Z,28.25
2022-12-22T22:15:04.044Z,26.37
2022-12-22T22:17:31.669Z,56.92
2022-12-22T22:19:59.055Z,56.53
2022-12-22T22:22:26.864Z,61.70
2022-12-22T22:24:54.171Z,50.00
2022-12-22T22:27:21.712Z,70.87
2022-12-22T22:29:49.440Z,98.80
2022-12-22T22:32:17.121Z,97.13
2022-12-22T22:34:44.447Z,87.80
2022-12-22T22:37:12.387Z,84.32
2022-12-22T22:39:39.607Z,81.63
2022-12-22T22:42:07.001Z,75.03
2022-12-22T22:44:34.658Z,73.05
2022-12-22T22:47:02.085Z,63.30
2022-12-22T22:49:29.416Z,66.22
2022-12-22T22:51:57.077Z,63.03
2022-12-22T22:54:24.332Z,72.15
2022-12-22T22:56:52.763Z,77.80
2022-12-22T22:59:21.931Z,76.53
2022-12-22T23:01:49.276Z,72.40
2022-12-22T23:04:16.921Z,65.87
2022-12-22T23:06:44.837Z,64.87
2022-12-22T23:09:12.195Z,56.40
2022-12-22T23:11:39.464Z,48.78
2022-12-22T23:14:07.220Z,53.38
2022-12-22T23:16:38.454Z,53.50
2022-12-22T23:19:06.965Z,48.03
2022-12-22T23:21:34.576Z,48.63
2022-12-22T23:24:01.923Z,54.70
2022-12-22T23:26:29.626Z,56.65
2022-12-22T23:29:02.858Z,53.25
2022-12-22T23:31:34.973Z,47.65
2022-12-22T23:34:02.836Z,47.80
2022-12-22T23:36:30.548Z,46.15
2022-12-22T23:38:58.369Z,47.75
2022-12-22T23:41:25.606Z,40.88
2022-12-22T23:43:54.572Z,44.53
2022-12-22T23:46:22.279Z,47.42
2022-12-22T23:48:54.782Z,42.13
2022-12-22T23:51:24.391Z,42.83
2022-12-22T23:53:51.662Z,29.65
2022-12-22T23:56:19.194Z,29.48
2022-12-22T23:58:49.590Z,35.65
